Seven Tenths — WDG5091 — position and weather

sailwx.info

Track history (hours):
 
Tides and Currents Weather Stations Pressure Air Temp Water Temp Dewpoint Dewpoint Depression Visibility Wind Speed Wind Dir Waves Ship Positions

Seven Tenths

Owner: Dennig, Henry J, Baltimore, MD. More information available from US FCC via Universal Licensing System and Coast Guard Vessel Documentation Center.

Last reported at 2018-May-03 17:40 UTC. Time now 2018-Jun-20 20:41 UTC.
Position N 34°50' W 076°41'.
Warning: this ship's position is 48 days out of date.

Length 15 m.

Type: Pleasure craft. MMSI: 367543210.

Date/timePositionNaut miles runAvg speedWind from/ knotsBaromVisibWave heightAir tempDewpointWater temp
2018-May-03 17:40N 34°50' W 076°41'1 6.5
2018-May-03 17:30N 34°49' W 076°41'3 7.0
2018-May-03 17:00N 34°46' W 076°41'3 5.9
2018-May-03 16:28N 34°43' W 076°42'3 6.5
2018-May-03 16:00N 34°43' W 076°45'  
2018-Apr-27 13:03N 32°08' W 080°52'1 8.6
2018-Apr-27 12:59N 32°08' W 080°53'3 5.5
2018-Apr-27 12:29N 32°06' W 080°54'3 6.4
2018-Apr-27 12:00N 32°04' W 080°58'3 6.6
2018-Apr-27 11:30N 32°04' W 081°02'3 4.8
2018-Apr-27 10:58N 32°01' W 081°03'1 1.6
2018-Apr-27 10:30N 32°01' W 081°03'0 0.0
2018-Apr-27 10:00N 32°01' W 081°03'0 0.0
2018-Apr-27 09:24N 32°01' W 081°03'0 0.0
2018-Apr-27 09:00N 32°01' W 081°03'0 0.0
2018-Apr-27 08:30N 32°01' W 081°03'0 0.0
2018-Apr-27 08:00N 32°01' W 081°03'0 0.0
2018-Apr-27 07:30N 32°01' W 081°03'0 0.0
2018-Apr-27 07:00N 32°01' W 081°03'0 0.0
2018-Apr-27 06:30N 32°01' W 081°03'0 0.0
2018-Apr-27 06:00N 32°01' W 081°03'0 0.0
2018-Apr-27 05:30N 32°01' W 081°03'0 0.0
2018-Apr-27 04:48N 32°01' W 081°03'0 0.0
2018-Apr-27 04:30N 32°01' W 081°03'0 0.0
2018-Apr-27 04:00N 32°01' W 081°03'0 0.0
2018-Apr-27 03:24N 32°01' W 081°03'0 0.0
2018-Apr-27 02:54N 32°01' W 081°03'0 0.0
2018-Apr-27 02:24N 32°01' W 081°03'0 0.0
2018-Apr-27 02:00N 32°01' W 081°03'0 0.0
2018-Apr-27 01:28N 32°01' W 081°03'0 0.0
2018-Apr-27 00:58N 32°01' W 081°03'0 0.0
2018-Apr-27 00:28N 32°01' W 081°03'0 0.0
2018-Apr-27 00:00N 32°01' W 081°03'0 0.0
2018-Apr-26 23:28N 32°01' W 081°03'0 0.0
2018-Apr-26 22:56N 32°01' W 081°03'0 0.0
2018-Apr-26 22:29N 32°01' W 081°03'0 0.0
2018-Apr-26 21:53N 32°01' W 081°03'0 1.1
2018-Apr-26 21:30N 32°01' W 081°03'1 2.7
2018-Apr-26 20:59N 32°01' W 081°01'2 5.1
2018-Apr-26 20:30N 31°59' W 081°03'  
Track history (hours):
 
Tides and Currents Weather Stations Pressure Air Temp Water Temp Dewpoint Dewpoint Depression Visibility Wind Speed Wind Dir Waves Ship Positions

Seven Tenths

Owner: Dennig, Henry J, Baltimore, MD. More information available from US FCC via Universal Licensing System and Coast Guard Vessel Documentation Center.

Last reported at 2018-May-03 17:40 UTC. Time now 2018-Jun-20 20:41 UTC.
Position N 34°50' W 076°41'.
Warning: this ship's position is 48 days out of date.

Length 15 m.

Type: Pleasure craft. MMSI: 367543210.

Date/timePositionNaut miles runAvg speedWind from/ knotsBaromVisibWave heightAir tempDewpointWater temp
2018-May-03 17:40N 34°50' W 076°41'1 6.5
2018-May-03 17:30N 34°49' W 076°41'3 7.0
2018-May-03 17:00N 34°46' W 076°41'3 5.9
2018-May-03 16:28N 34°43' W 076°42'3 6.5
2018-May-03 16:00N 34°43' W 076°45'  
2018-Apr-27 13:03N 32°08' W 080°52'1 8.6
2018-Apr-27 12:59N 32°08' W 080°53'3 5.5
2018-Apr-27 12:29N 32°06' W 080°54'3 6.4
2018-Apr-27 12:00N 32°04' W 080°58'3 6.6
2018-Apr-27 11:30N 32°04' W 081°02'3 4.8
2018-Apr-27 10:58N 32°01' W 081°03'1 1.6
2018-Apr-27 10:30N 32°01' W 081°03'0 0.0
2018-Apr-27 10:00N 32°01' W 081°03'0 0.0
2018-Apr-27 09:24N 32°01' W 081°03'0 0.0
2018-Apr-27 09:00N 32°01' W 081°03'0 0.0
2018-Apr-27 08:30N 32°01' W 081°03'0 0.0
2018-Apr-27 08:00N 32°01' W 081°03'0 0.0
2018-Apr-27 07:30N 32°01' W 081°03'0 0.0
2018-Apr-27 07:00N 32°01' W 081°03'0 0.0
2018-Apr-27 06:30N 32°01' W 081°03'0 0.0
2018-Apr-27 06:00N 32°01' W 081°03'0 0.0
2018-Apr-27 05:30N 32°01' W 081°03'0 0.0
2018-Apr-27 04:48N 32°01' W 081°03'0 0.0
2018-Apr-27 04:30N 32°01' W 081°03'0 0.0
2018-Apr-27 04:00N 32°01' W 081°03'0 0.0
2018-Apr-27 03:24N 32°01' W 081°03'0 0.0
2018-Apr-27 02:54N 32°01' W 081°03'0 0.0
2018-Apr-27 02:24N 32°01' W 081°03'0 0.0
2018-Apr-27 02:00N 32°01' W 081°03'0 0.0
2018-Apr-27 01:28N 32°01' W 081°03'0 0.0
2018-Apr-27 00:58N 32°01' W 081°03'0 0.0
2018-Apr-27 00:28N 32°01' W 081°03'0 0.0
2018-Apr-27 00:00N 32°01' W 081°03'0 0.0
2018-Apr-26 23:28N 32°01' W 081°03'0 0.0
2018-Apr-26 22:56N 32°01' W 081°03'0 0.0
2018-Apr-26 22:29N 32°01' W 081°03'0 0.0
2018-Apr-26 21:53N 32°01' W 081°03'0 1.1
2018-Apr-26 21:30N 32°01' W 081°03'1 2.7
2018-Apr-26 20:59N 32°01' W 081°01'2 5.1
2018-Apr-26 20:30N 31°59' W 081°03'  

Dump ship's entire track history